createdAt,value
2019-05-19T00:03:40.779Z,23.25
2019-05-19T00:08:48.769Z,17.00
2019-05-19T00:13:54.918Z,21.50
2019-05-19T00:19:01.308Z,21.12
2019-05-19T00:24:06.133Z,26.00
2019-05-19T00:29:13.560Z,22.25
2019-05-19T00:34:20.229Z,20.00
2019-05-19T00:39:23.708Z,25.25
2019-05-19T00:44:28.801Z,22.71
2019-05-19T00:49:41.493Z,21.00
2019-05-19T00:54:44.027Z,25.37
2019-05-19T00:59:52.692Z,21.75
2019-05-19T01:04:56.691Z,23.67
2019-05-19T01:10:02.403Z,20.57
2019-05-19T01:15:09.299Z,21.87
2019-05-19T01:20:13.120Z,17.75
2019-05-19T01:25:17.152Z,21.00
2019-05-19T01:30:23.519Z,22.37
2019-05-19T01:35:26.718Z,17.00
2019-05-19T01:40:33.219Z,21.00
2019-05-19T01:45:39.694Z,14.14
2019-05-19T01:50:46.918Z,17.50
2019-05-19T01:55:54.105Z,16.75
2019-05-19T02:00:59.766Z,16.71
2019-05-19T02:06:02.702Z,18.00
2019-05-19T02:11:06.315Z,18.00
2019-05-19T02:16:13.342Z,20.37
2019-05-19T02:21:18.686Z,21.00
2019-05-19T02:26:24.797Z,21.62
2019-05-19T02:31:30.415Z,18.29
2019-05-19T02:36:34.242Z,15.00
2019-05-19T02:41:43.127Z,17.37
2019-05-19T02:46:48.279Z,18.00
2019-05-19T02:51:54.341Z,21.33
2019-05-19T02:56:59.448Z,23.00
2019-05-19T03:02:05.906Z,19.75
2019-05-19T03:07:11.843Z,20.14
2019-05-19T03:12:15.258Z,21.00
2019-05-19T03:17:21.100Z,21.12
2019-05-19T03:22:25.148Z,18.00
2019-05-19T03:27:29.416Z,17.00
2019-05-19T03:32:34.979Z,17.43
2019-05-19T03:37:41.768Z,16.71
2019-05-19T03:42:50.270Z,16.14
2019-05-19T03:47:54.410Z,16.50
2019-05-19T03:52:57.708Z,24.00
2019-05-19T03:58:02.731Z,16.57
2019-05-19T04:03:06.823Z,22.00
2019-05-19T04:08:13.595Z,17.00
2019-05-19T04:13:22.230Z,17.29
2019-05-19T04:18:25.728Z,23.00
2019-05-19T04:23:33.227Z,25.50
2019-05-19T04:28:36.780Z,23.00
2019-05-19T04:33:41.809Z,22.43
2019-05-19T04:38:45.988Z,18.40
2019-05-19T04:43:50.978Z,22.86
2019-05-19T04:48:55.100Z,22.25
2019-05-19T04:54:00.246Z,20.00
2019-05-19T04:59:07.080Z,22.00
2019-05-19T05:04:11.276Z,21.00
2019-05-19T05:09:16.489Z,21.14
2019-05-19T05:14:24.915Z,28.38
2019-05-19T05:19:30.187Z,22.14
2019-05-19T05:24:36.726Z,24.00
2019-05-19T05:29:45.993Z,29.00
2019-05-19T05:34:52.728Z,23.38
2019-05-19T05:39:57.709Z,30.75
2019-05-19T05:45:00.995Z,26.00
2019-05-19T05:50:07.139Z,20.37
2019-05-19T05:55:13.641Z,24.25
2019-05-19T06:00:20.831Z,27.75
2019-05-19T06:05:25.594Z,28.00
2019-05-19T06:10:31.977Z,28.00
2019-05-19T06:15:37.316Z,24.25
2019-05-19T06:20:41.186Z,27.00
2019-05-19T06:25:45.051Z,26.67
2019-05-19T06:30:52.731Z,24.25
2019-05-19T06:35:58.763Z,26.75
2019-05-19T06:41:03.265Z,26.67
2019-05-19T06:46:11.978Z,30.62
2019-05-19T06:51:17.355Z,26.71
2019-05-19T06:56:23.410Z,39.56
2019-05-19T07:01:29.578Z,33.63
2019-05-19T07:06:34.711Z,29.25
2019-05-19T07:11:40.866Z,29.00
2019-05-19T07:16:48.843Z,32.75
2019-05-19T07:21:55.100Z,23.43
2019-05-19T07:27:01.093Z,17.43
2019-05-19T07:32:06.459Z,24.00
2019-05-19T07:37:09.950Z,22.00
2019-05-19T07:42:17.965Z,28.20
2019-05-19T07:47:22.067Z,24.33
2019-05-19T07:52:27.309Z,22.29
2019-05-19T07:57:33.561Z,22.71
2019-05-19T08:02:40.679Z,21.00
2019-05-19T08:07:45.293Z,30.50
2019-05-19T08:12:48.926Z,33.00
2019-05-19T08:17:53.386Z,38.50
2019-05-19T08:22:59.790Z,25.37
2019-05-19T08:28:09.271Z,35.13
2019-05-19T08:33:19.067Z,31.75
2019-05-19T08:38:22.754Z,27.50
2019-05-19T08:43:30.955Z,31.75
2019-05-19T08:48:38.590Z,26.43
2019-05-19T08:53:42.722Z,33.50
2019-05-19T08:58:50.204Z,26.14
2019-05-19T09:03:53.528Z,25.33
2019-05-19T09:08:59.167Z,26.00
2019-05-19T09:14:05.094Z,30.62
2019-05-19T09:19:12.489Z,20.50
2019-05-19T09:24:30.190Z,27.75
2019-05-19T09:29:27.200Z,24.71
2019-05-19T09:34:34.546Z,33.13
2019-05-19T09:39:40.349Z,42.62
2019-05-19T09:44:45.907Z,31.29
2019-05-19T09:49:50.703Z,32.00
2019-05-19T09:54:56.628Z,25.37
2019-05-19T10:00:05.651Z,37.38
2019-05-19T10:05:12.290Z,32.00
2019-05-19T10:10:18.428Z,33.14
2019-05-19T10:15:26.301Z,31.50
2019-05-19T10:20:35.644Z,38.13
2019-05-19T10:25:41.948Z,26.37
2019-05-19T10:30:47.592Z,20.00
2019-05-19T10:35:54.146Z,30.62
2019-05-19T10:40:57.427Z,25.33
2019-05-19T10:46:05.631Z,29.63
2019-05-19T10:51:11.279Z,24.50
2019-05-19T10:56:14.605Z,23.67
2019-05-19T11:01:20.291Z,22.14
2019-05-19T11:06:27.763Z,20.88
2019-05-19T11:11:32.840Z,21.29
2019-05-19T11:16:36.763Z,17.40
2019-05-19T11:21:41.282Z,18.71
2019-05-19T11:26:47.654Z,28.50
2019-05-19T11:31:50.784Z,18.33
2019-05-19T11:36:54.649Z,23.25
2019-05-19T11:42:00.175Z,22.00
2019-05-19T11:47:05.690Z,16.00
2019-05-19T11:52:12.739Z,20.22
2019-05-19T11:57:18.127Z,11.71
2019-05-19T12:02:23.438Z,12.71
2019-05-19T12:07:27.729Z,9.33
2019-05-19T12:12:31.402Z,12.67
2019-05-19T12:17:34.417Z,8.00
2019-05-19T12:22:41.602Z,7.89
2019-05-19T12:27:48.948Z,12.33
2019-05-19T12:32:52.688Z,9.67
2019-05-19T12:37:56.976Z,10.33
2019-05-19T12:43:00.550Z,7.17
2019-05-19T12:48:04.288Z,12.00
2019-05-19T12:53:08.907Z,9.17
2019-05-19T12:58:13.569Z,12.00
2019-05-19T13:03:16.568Z,7.00
2019-05-19T13:08:24.710Z,20.00
2019-05-19T13:13:30.159Z,17.43
2019-05-19T13:18:34.871Z,9.17
2019-05-19T13:23:43.360Z,12.67
2019-05-19T13:28:49.716Z,20.12
2019-05-19T13:33:52.859Z,19.00
2019-05-19T13:38:56.706Z,19.00
2019-05-19T13:44:04.534Z,7.50
2019-05-19T13:49:07.301Z,28.00
2019-05-19T13:54:16.409Z,21.25
2019-05-19T13:59:22.630Z,18.14
2019-05-19T14:04:29.318Z,15.71
2019-05-19T14:09:33.486Z,34.40
2019-05-19T14:14:39.334Z,13.71
2019-05-19T14:19:42.491Z,21.75
2019-05-19T14:24:46.527Z,25.75
2019-05-19T14:29:52.240Z,21.43
2019-05-19T14:34:57.879Z,17.00
2019-05-19T14:40:03.023Z,14.71
2019-05-19T14:45:11.327Z,9.50
2019-05-19T14:50:17.023Z,16.67
2019-05-19T14:55:21.779Z,10.17
2019-05-19T15:00:30.337Z,15.29
2019-05-19T15:05:35.472Z,13.17
2019-05-19T15:10:40.432Z,19.00
2019-05-19T15:15:45.292Z,11.29
2019-05-19T15:20:51.067Z,14.57
2019-05-19T15:25:55.941Z,10.67
2019-05-19T15:31:01.617Z,17.29
2019-05-19T15:36:08.865Z,12.67
2019-05-19T15:41:13.748Z,10.50
2019-05-19T15:46:22.380Z,17.50
2019-05-19T15:51:31.435Z,14.00
2019-05-19T15:56:35.063Z,15.71
2019-05-19T16:01:41.853Z,17.75
2019-05-19T16:06:45.616Z,16.00
2019-05-19T16:11:49.260Z,22.80
2019-05-19T16:16:52.969Z,14.33
2019-05-19T16:21:58.177Z,14.71
2019-05-19T16:27:02.203Z,14.60
2019-05-19T16:32:07.384Z,21.86
2019-05-19T16:37:11.723Z,13.00
2019-05-19T16:42:18.375Z,21.87
2019-05-19T16:47:21.927Z,16.50
2019-05-19T16:52:27.187Z,13.71
2019-05-19T16:57:31.339Z,15.00
2019-05-19T17:02:35.453Z,16.50
2019-05-19T17:07:43.989Z,14.29
2019-05-19T17:12:48.205Z,14.17
2019-05-19T17:17:53.467Z,14.14
2019-05-19T17:22:57.562Z,15.00
2019-05-19T17:28:01.698Z,11.50
2019-05-19T17:33:07.503Z,13.00
2019-05-19T17:38:12.634Z,10.33
2019-05-19T17:43:20.355Z,9.67
2019-05-19T17:48:26.731Z,12.00
2019-05-19T17:53:30.451Z,8.00
2019-05-19T17:58:38.963Z,15.20
2019-05-19T18:03:45.125Z,23.62
2019-05-19T18:08:53.535Z,27.00
2019-05-19T18:14:02.984Z,24.00
2019-05-19T18:19:09.087Z,26.87
2019-05-19T18:24:13.532Z,15.71
2019-05-19T18:29:30.511Z,14.80
2019-05-19T18:34:27.773Z,24.00
2019-05-19T18:39:34.530Z,21.37
2019-05-19T18:44:37.819Z,20.67
2019-05-19T18:49:43.710Z,16.43
2019-05-19T18:54:50.560Z,14.57
2019-05-19T18:59:55.470Z,15.33
2019-05-19T19:04:58.916Z,16.00
2019-05-19T19:10:04.211Z,25.00
2019-05-19T19:15:11.148Z,16.12
2019-05-19T19:20:16.906Z,17.57
2019-05-19T19:25:20.114Z,17.33
2019-05-19T19:30:26.751Z,20.50
2019-05-19T19:35:38.594Z,15.33
2019-05-19T19:40:40.063Z,20.50
2019-05-19T19:45:43.708Z,16.00
2019-05-19T19:50:52.330Z,16.29
2019-05-19T19:55:55.826Z,15.00
2019-05-19T20:00:59.445Z,13.50
2019-05-19T20:06:07.198Z,18.00
2019-05-19T20:11:10.739Z,18.50
2019-05-19T20:16:14.159Z,20.25
2019-05-19T20:21:22.038Z,18.37
2019-05-19T20:26:29.005Z,21.50
2019-05-19T20:31:36.771Z,19.00
2019-05-19T20:36:42.632Z,16.00
2019-05-19T20:41:46.242Z,19.00
2019-05-19T20:46:51.304Z,19.86
2019-05-19T20:51:58.066Z,24.50
2019-05-19T20:57:04.931Z,23.12
2019-05-19T21:02:09.279Z,20.00
2019-05-19T21:07:13.558Z,24.67
2019-05-19T21:12:17.683Z,33.75
2019-05-19T21:17:21.062Z,31.00
2019-05-19T21:22:30.226Z,28.62
2019-05-19T21:27:38.444Z,24.25
2019-05-19T21:32:42.490Z,32.25
2019-05-19T21:37:46.536Z,22.00
2019-05-19T21:42:51.529Z,21.00
2019-05-19T21:48:00.547Z,31.25
2019-05-19T21:53:07.962Z,30.37
2019-05-19T21:58:13.484Z,22.86
2019-05-19T22:03:18.454Z,28.00
2019-05-19T22:08:22.492Z,27.50
2019-05-19T22:13:28.231Z,26.00
2019-05-19T22:18:32.837Z,31.50
2019-05-19T22:23:38.620Z,28.25
2019-05-19T22:28:45.775Z,27.57
2019-05-19T22:33:51.541Z,30.25
2019-05-19T22:38:56.297Z,34.75
2019-05-19T22:44:06.435Z,44.27
2019-05-19T22:49:11.194Z,25.00
2019-05-19T22:54:14.546Z,26.67
2019-05-19T22:59:20.072Z,26.00
2019-05-19T23:04:22.533Z,21.00
2019-05-19T23:09:28.974Z,21.71
2019-05-19T23:14:33.015Z,28.00
2019-05-19T23:19:38.132Z,22.29
2019-05-19T23:24:42.940Z,23.75
2019-05-19T23:29:53.116Z,24.64
2019-05-19T23:34:56.323Z,30.33
2019-05-19T23:40:05.599Z,27.00
2019-05-19T23:45:11.548Z,24.40
2019-05-19T23:50:16.866Z,23.57
2019-05-19T23:55:21.421Z,26.50
